sensor_id;sensor_type;location;lat;lon;timestamp;P1;durP1;ratioP1;P2;durP2;ratioP2
61903;SDS011;47857;52.270;6.804;2023-08-06T00:01:13;10.73;;;6.53;;
61903;SDS011;47857;52.270;6.804;2023-08-06T00:03:38;9.82;;;6.28;;
61903;SDS011;47857;52.270;6.804;2023-08-06T00:06:06;9.18;;;7.03;;
61903;SDS011;47857;52.270;6.804;2023-08-06T00:08:32;12.05;;;6.97;;
61903;SDS011;47857;52.270;6.804;2023-08-06T00:10:57;8.77;;;6.75;;
61903;SDS011;47857;52.270;6.804;2023-08-06T00:13:23;7.72;;;6.40;;
61903;SDS011;47857;52.270;6.804;2023-08-06T00:15:48;9.15;;;6.97;;
61903;SDS011;47857;52.270;6.804;2023-08-06T00:18:14;9.93;;;6.93;;
61903;SDS011;47857;52.270;6.804;2023-08-06T00:20:39;9.13;;;6.55;;
61903;SDS011;47857;52.270;6.804;2023-08-06T00:23:06;11.27;;;6.65;;
61903;SDS011;47857;52.270;6.804;2023-08-06T00:25:31;10.35;;;7.47;;
61903;SDS011;47857;52.270;6.804;2023-08-06T00:27:57;10.48;;;6.88;;
61903;SDS011;47857;52.270;6.804;2023-08-06T00:30:22;10.65;;;6.95;;
61903;SDS011;47857;52.270;6.804;2023-08-06T00:32:49;11.02;;;7.43;;
61903;SDS011;47857;52.270;6.804;2023-08-06T00:35:15;10.18;;;7.45;;
61903;SDS011;47857;52.270;6.804;2023-08-06T00:37:41;11.98;;;7.25;;
61903;SDS011;47857;52.270;6.804;2023-08-06T00:40:07;9.35;;;7.13;;
61903;SDS011;47857;52.270;6.804;2023-08-06T00:42:33;9.75;;;6.68;;
61903;SDS011;47857;52.270;6.804;2023-08-06T00:45:00;11.70;;;6.72;;
61903;SDS011;47857;52.270;6.804;2023-08-06T00:47:26;9.68;;;6.43;;
61903;SDS011;47857;52.270;6.804;2023-08-06T00:49:51;10.52;;;6.65;;
61903;SDS011;47857;52.270;6.804;2023-08-06T00:52:17;8.93;;;6.90;;
61903;SDS011;47857;52.270;6.804;2023-08-06T00:54:42;10.45;;;6.90;;
61903;SDS011;47857;52.270;6.804;2023-08-06T00:57:08;10.77;;;7.20;;
61903;SDS011;47857;52.270;6.804;2023-08-06T00:59:34;9.88;;;6.68;;
61903;SDS011;47857;52.270;6.804;2023-08-06T01:02:00;9.52;;;6.88;;
61903;SDS011;47857;52.270;6.804;2023-08-06T01:04:26;10.30;;;6.85;;
61903;SDS011;47857;52.270;6.804;2023-08-06T01:12:26;10.15;;;6.82;;
61903;SDS011;47857;52.270;6.804;2023-08-06T01:15:27;12.10;;;6.95;;
61903;SDS011;47857;52.270;6.804;2023-08-06T01:17:53;11.90;;;7.45;;
61903;SDS011;47857;52.270;6.804;2023-08-06T01:20:18;11.55;;;7.28;;
61903;SDS011;47857;52.270;6.804;2023-08-06T01:22:44;8.85;;;6.35;;
61903;SDS011;47857;52.270;6.804;2023-08-06T01:25:10;8.10;;;6.70;;
61903;SDS011;47857;52.270;6.804;2023-08-06T01:27:55;11.23;;;6.65;;
61903;SDS011;47857;52.270;6.804;2023-08-06T01:30:29;18.17;;;7.78;;
61903;SDS011;47857;52.270;6.804;2023-08-06T01:32:59;11.70;;;7.70;;
61903;SDS011;47857;52.270;6.804;2023-08-06T01:35:29;11.70;;;7.63;;
61903;SDS011;47857;52.270;6.804;2023-08-06T01:37:57;12.75;;;7.70;;
61903;SDS011;47857;52.270;6.804;2023-08-06T01:40:22;11.73;;;7.68;;
61903;SDS011;47857;52.270;6.804;2023-08-06T01:42:48;11.90;;;7.65;;
61903;SDS011;47857;52.270;6.804;2023-08-06T01:45:13;10.93;;;8.45;;
61903;SDS011;47857;52.270;6.804;2023-08-06T01:47:39;14.02;;;8.55;;
61903;SDS011;47857;52.270;6.804;2023-08-06T01:50:05;10.95;;;8.23;;
61903;SDS011;47857;52.270;6.804;2023-08-06T01:52:30;11.73;;;7.40;;
61903;SDS011;47857;52.270;6.804;2023-08-06T01:54:57;12.02;;;8.32;;
61903;SDS011;47857;52.270;6.804;2023-08-06T01:57:23;10.65;;;7.80;;
61903;SDS011;47857;52.270;6.804;2023-08-06T01:59:48;9.95;;;7.53;;
61903;SDS011;47857;52.270;6.804;2023-08-06T02:02:13;11.75;;;8.15;;
61903;SDS011;47857;52.270;6.804;2023-08-06T02:04:39;13.40;;;8.25;;
61903;SDS011;47857;52.270;6.804;2023-08-06T02:07:05;15.77;;;8.27;;
61903;SDS011;47857;52.270;6.804;2023-08-06T02:09:30;10.82;;;8.38;;
61903;SDS011;47857;52.270;6.804;2023-08-06T02:11:56;10.30;;;7.82;;
61903;SDS011;47857;52.270;6.804;2023-08-06T02:14:22;10.60;;;8.23;;
61903;SDS011;47857;52.270;6.804;2023-08-06T02:16:47;12.52;;;8.07;;
61903;SDS011;47857;52.270;6.804;2023-08-06T02:19:14;11.88;;;7.97;;
61903;SDS011;47857;52.270;6.804;2023-08-06T02:21:40;14.40;;;8.23;;
61903;SDS011;47857;52.270;6.804;2023-08-06T02:24:05;13.45;;;8.95;;
61903;SDS011;47857;52.270;6.804;2023-08-06T02:26:31;10.40;;;8.48;;
61903;SDS011;47857;52.270;6.804;2023-08-06T02:28:56;11.43;;;8.07;;
61903;SDS011;47857;52.270;6.804;2023-08-06T02:31:22;12.40;;;8.23;;
61903;SDS011;47857;52.270;6.804;2023-08-06T02:33:47;12.07;;;8.20;;
61903;SDS011;47857;52.270;6.804;2023-08-06T02:36:13;10.48;;;7.97;;
61903;SDS011;47857;52.270;6.804;2023-08-06T02:38:38;11.60;;;7.97;;
61903;SDS011;47857;52.270;6.804;2023-08-06T02:41:04;12.45;;;8.02;;
61903;SDS011;47857;52.270;6.804;2023-08-06T02:43:30;10.10;;;8.32;;
61903;SDS011;47857;52.270;6.804;2023-08-06T02:45:59;11.88;;;8.60;;
61903;SDS011;47857;52.270;6.804;2023-08-06T02:48:25;11.35;;;8.18;;
61903;SDS011;47857;52.270;6.804;2023-08-06T02:50:52;13.38;;;8.60;;
61903;SDS011;47857;52.270;6.804;2023-08-06T02:53:17;14.15;;;8.07;;
61903;SDS011;47857;52.270;6.804;2023-08-06T02:55:48;11.30;;;8.63;;
61903;SDS011;47857;52.270;6.804;2023-08-06T02:58:17;12.07;;;8.75;;
61903;SDS011;47857;52.270;6.804;2023-08-06T03:01:01;11.07;;;8.45;;
61903;SDS011;47857;52.270;6.804;2023-08-06T03:03:29;14.02;;;8.63;;
61903;SDS011;47857;52.270;6.804;2023-08-06T03:06:00;10.65;;;8.40;;
61903;SDS011;47857;52.270;6.804;2023-08-06T03:08:35;12.75;;;8.63;;
61903;SDS011;47857;52.270;6.804;2023-08-06T03:11:01;9.88;;;8.23;;
61903;SDS011;47857;52.270;6.804;2023-08-06T03:13:27;13.10;;;8.68;;
61903;SDS011;47857;52.270;6.804;2023-08-06T03:15:54;11.55;;;8.88;;
61903;SDS011;47857;52.270;6.804;2023-08-06T03:18:24;12.48;;;9.35;;
61903;SDS011;47857;52.270;6.804;2023-08-06T03:20:55;11.27;;;8.75;;
61903;SDS011;47857;52.270;6.804;2023-08-06T03:23:23;14.15;;;9.50;;
61903;SDS011;47857;52.270;6.804;2023-08-06T03:25:49;12.60;;;9.18;;
61903;SDS011;47857;52.270;6.804;2023-08-06T03:28:15;11.68;;;9.35;;
61903;SDS011;47857;52.270;6.804;2023-08-06T03:30:42;15.63;;;10.18;;
61903;SDS011;47857;52.270;6.804;2023-08-06T03:33:10;13.77;;;10.25;;
61903;SDS011;47857;52.270;6.804;2023-08-06T03:35:36;12.77;;;10.30;;
61903;SDS011;47857;52.270;6.804;2023-08-06T03:38:01;14.18;;;9.48;;
61903;SDS011;47857;52.270;6.804;2023-08-06T03:40:27;11.20;;;9.32;;
61903;SDS011;47857;52.270;6.804;2023-08-06T03:42:55;11.15;;;9.52;;
61903;SDS011;47857;52.270;6.804;2023-08-06T03:45:20;14.10;;;10.43;;
61903;SDS011;47857;52.270;6.804;2023-08-06T03:47:46;13.82;;;10.30;;
61903;SDS011;47857;52.270;6.804;2023-08-06T03:50:12;12.82;;;10.70;;
61903;SDS011;47857;52.270;6.804;2023-08-06T03:52:38;14.55;;;10.27;;
61903;SDS011;47857;52.270;6.804;2023-08-06T03:55:04;13.55;;;10.65;;
61903;SDS011;47857;52.270;6.804;2023-08-06T03:57:30;15.65;;;10.40;;
61903;SDS011;47857;52.270;6.804;2023-08-06T03:59:56;15.70;;;10.50;;
61903;SDS011;47857;52.270;6.804;2023-08-06T04:02:24;19.95;;;11.20;;
61903;SDS011;47857;52.270;6.804;2023-08-06T04:04:50;14.10;;;11.10;;
61903;SDS011;47857;52.270;6.804;2023-08-06T04:07:18;13.98;;;11.32;;
61903;SDS011;47857;52.270;6.804;2023-08-06T04:10:00;14.55;;;11.35;;
61903;SDS011;47857;52.270;6.804;2023-08-06T04:12:28;13.75;;;10.68;;
61903;SDS011;47857;52.270;6.804;2023-08-06T04:14:53;16.25;;;11.35;;
61903;SDS011;47857;52.270;6.804;2023-08-06T04:17:19;16.95;;;11.70;;
61903;SDS011;47857;52.270;6.804;2023-08-06T04:19:46;15.25;;;11.27;;
61903;SDS011;47857;52.270;6.804;2023-08-06T04:22:14;15.73;;;12.70;;
61903;SDS011;47857;52.270;6.804;2023-08-06T04:24:39;16.70;;;12.02;;
61903;SDS011;47857;52.270;6.804;2023-08-06T04:27:05;22.05;;;14.82;;
61903;SDS011;47857;52.270;6.804;2023-08-06T04:29:31;25.67;;;17.10;;
61903;SDS011;47857;52.270;6.804;2023-08-06T04:31:57;16.38;;;12.63;;
61903;SDS011;47857;52.270;6.804;2023-08-06T04:34:23;14.15;;;10.65;;
61903;SDS011;47857;52.270;6.804;2023-08-06T04:36:49;13.93;;;10.43;;
61903;SDS011;47857;52.270;6.804;2023-08-06T04:39:14;12.30;;;10.30;;
61903;SDS011;47857;52.270;6.804;2023-08-06T04:41:40;12.90;;;10.27;;
61903;SDS011;47857;52.270;6.804;2023-08-06T04:44:05;14.00;;;9.85;;
61903;SDS011;47857;52.270;6.804;2023-08-06T04:46:31;14.30;;;10.02;;
61903;SDS011;47857;52.270;6.804;2023-08-06T04:48:57;15.82;;;10.82;;
61903;SDS011;47857;52.270;6.804;2023-08-06T04:51:22;14.02;;;10.25;;
61903;SDS011;47857;52.270;6.804;2023-08-06T04:53:47;16.23;;;10.18;;
61903;SDS011;47857;52.270;6.804;2023-08-06T04:56:13;16.25;;;11.23;;
61903;SDS011;47857;52.270;6.804;2023-08-06T04:58:38;16.38;;;9.95;;
61903;SDS011;47857;52.270;6.804;2023-08-06T05:01:04;14.27;;;10.10;;
61903;SDS011;47857;52.270;6.804;2023-08-06T05:03:29;12.05;;;9.90;;
61903;SDS011;47857;52.270;6.804;2023-08-06T05:05:55;16.45;;;11.30;;
61903;SDS011;47857;52.270;6.804;2023-08-06T05:08:21;17.65;;;11.60;;
61903;SDS011;47857;52.270;6.804;2023-08-06T05:10:46;16.95;;;11.38;;
61903;SDS011;47857;52.270;6.804;2023-08-06T05:13:12;16.45;;;11.27;;
61903;SDS011;47857;52.270;6.804;2023-08-06T05:15:37;20.70;;;10.82;;
61903;SDS011;47857;52.270;6.804;2023-08-06T05:18:05;16.88;;;11.85;;
61903;SDS011;47857;52.270;6.804;2023-08-06T05:20:30;14.52;;;11.55;;
61903;SDS011;47857;52.270;6.804;2023-08-06T05:22:56;12.27;;;10.00;;
61903;SDS011;47857;52.270;6.804;2023-08-06T05:25:21;16.20;;;11.18;;
61903;SDS011;47857;52.270;6.804;2023-08-06T05:27:47;14.23;;;11.18;;
61903;SDS011;47857;52.270;6.804;2023-08-06T05:30:12;14.77;;;11.13;;
61903;SDS011;47857;52.270;6.804;2023-08-06T05:32:38;13.05;;;10.70;;
61903;SDS011;47857;52.270;6.804;2023-08-06T05:35:03;12.27;;;10.13;;
61903;SDS011;47857;52.270;6.804;2023-08-06T05:37:29;13.60;;;10.00;;
61903;SDS011;47857;52.270;6.804;2023-08-06T05:39:55;13.82;;;9.70;;
61903;SDS011;47857;52.270;6.804;2023-08-06T05:42:20;12.65;;;9.40;;
61903;SDS011;47857;52.270;6.804;2023-08-06T05:44:46;11.50;;;8.98;;
61903;SDS011;47857;52.270;6.804;2023-08-06T05:47:11;11.68;;;8.93;;
61903;SDS011;47857;52.270;6.804;2023-08-06T05:49:37;10.45;;;8.85;;
61903;SDS011;47857;52.270;6.804;2023-08-06T05:52:02;12.50;;;9.15;;
61903;SDS011;47857;52.270;6.804;2023-08-06T05:54:31;13.20;;;9.38;;
61903;SDS011;47857;52.270;6.804;2023-08-06T05:56:57;11.52;;;8.90;;
61903;SDS011;47857;52.270;6.804;2023-08-06T05:59:22;13.55;;;8.68;;
61903;SDS011;47857;52.270;6.804;2023-08-06T06:01:48;12.00;;;8.20;;
61903;SDS011;47857;52.270;6.804;2023-08-06T06:04:13;11.02;;;8.60;;
61903;SDS011;47857;52.270;6.804;2023-08-06T06:06:39;10.57;;;8.13;;
61903;SDS011;47857;52.270;6.804;2023-08-06T06:09:06;10.73;;;8.13;;
61903;SDS011;47857;52.270;6.804;2023-08-06T06:11:32;12.50;;;7.78;;
61903;SDS011;47857;52.270;6.804;2023-08-06T06:13:57;10.95;;;9.10;;
61903;SDS011;47857;52.270;6.804;2023-08-06T06:16:23;11.80;;;8.05;;
61903;SDS011;47857;52.270;6.804;2023-08-06T06:18:48;10.45;;;7.57;;
61903;SDS011;47857;52.270;6.804;2023-08-06T06:21:14;10.65;;;7.68;;
61903;SDS011;47857;52.270;6.804;2023-08-06T06:23:39;10.13;;;7.07;;
61903;SDS011;47857;52.270;6.804;2023-08-06T06:26:05;9.07;;;7.18;;
61903;SDS011;47857;52.270;6.804;2023-08-06T06:28:31;13.48;;;11.13;;
61903;SDS011;47857;52.270;6.804;2023-08-06T06:30:59;15.52;;;10.95;;
61903;SDS011;47857;52.270;6.804;2023-08-06T06:33:28;14.65;;;11.30;;
61903;SDS011;47857;52.270;6.804;2023-08-06T06:35:54;13.35;;;9.90;;
61903;SDS011;47857;52.270;6.804;2023-08-06T06:38:20;28.00;;;18.60;;
61903;SDS011;47857;52.270;6.804;2023-08-06T06:40:55;15.02;;;11.70;;
61903;SDS011;47857;52.270;6.804;2023-08-06T06:43:21;10.15;;;7.97;;
61903;SDS011;47857;52.270;6.804;2023-08-06T06:45:46;8.18;;;7.35;;
61903;SDS011;47857;52.270;6.804;2023-08-06T06:48:12;10.40;;;7.85;;
61903;SDS011;47857;52.270;6.804;2023-08-06T06:50:37;8.13;;;6.88;;
61903;SDS011;47857;52.270;6.804;2023-08-06T06:53:04;10.48;;;7.20;;
61903;SDS011;47857;52.270;6.804;2023-08-06T06:55:30;9.05;;;6.82;;
61903;SDS011;47857;52.270;6.804;2023-08-06T06:57:55;8.73;;;6.30;;
61903;SDS011;47857;52.270;6.804;2023-08-06T07:00:21;11.43;;;6.88;;
61903;SDS011;47857;52.270;6.804;2023-08-06T07:02:46;8.07;;;6.65;;
61903;SDS011;47857;52.270;6.804;2023-08-06T07:05:12;9.57;;;6.65;;
61903;SDS011;47857;52.270;6.804;2023-08-06T07:07:37;13.90;;;6.57;;
61903;SDS011;47857;52.270;6.804;2023-08-06T07:10:03;10.45;;;6.15;;
61903;SDS011;47857;52.270;6.804;2023-08-06T07:12:29;10.57;;;6.20;;
61903;SDS011;47857;52.270;6.804;2023-08-06T07:14:55;7.55;;;6.53;;
61903;SDS011;47857;52.270;6.804;2023-08-06T07:17:20;8.57;;;7.05;;
61903;SDS011;47857;52.270;6.804;2023-08-06T07:19:46;12.23;;;6.80;;
61903;SDS011;47857;52.270;6.804;2023-08-06T07:22:11;10.27;;;7.07;;
61903;SDS011;47857;52.270;6.804;2023-08-06T07:24:37;10.45;;;7.10;;
61903;SDS011;47857;52.270;6.804;2023-08-06T07:27:02;10.50;;;6.80;;
61903;SDS011;47857;52.270;6.804;2023-08-06T07:29:28;10.27;;;6.57;;
61903;SDS011;47857;52.270;6.804;2023-08-06T07:31:54;8.82;;;6.32;;
61903;SDS011;47857;52.270;6.804;2023-08-06T07:34:20;9.32;;;7.28;;
61903;SDS011;47857;52.270;6.804;2023-08-06T07:36:46;10.90;;;7.30;;
61903;SDS011;47857;52.270;6.804;2023-08-06T07:39:12;8.40;;;6.38;;
61903;SDS011;47857;52.270;6.804;2023-08-06T07:41:37;6.60;;;5.68;;
61903;SDS011;47857;52.270;6.804;2023-08-06T07:44:03;10.15;;;6.70;;
61903;SDS011;47857;52.270;6.804;2023-08-06T07:46:29;9.93;;;6.60;;
61903;SDS011;47857;52.270;6.804;2023-08-06T07:48:54;8.10;;;6.18;;
61903;SDS011;47857;52.270;6.804;2023-08-06T07:51:20;8.07;;;6.47;;
61903;SDS011;47857;52.270;6.804;2023-08-06T07:53:45;12.90;;;7.00;;
61903;SDS011;47857;52.270;6.804;2023-08-06T07:56:11;8.18;;;7.20;;
61903;SDS011;47857;52.270;6.804;2023-08-06T07:58:36;8.52;;;6.75;;
61903;SDS011;47857;52.270;6.804;2023-08-06T08:01:02;10.63;;;7.78;;
61903;SDS011;47857;52.270;6.804;2023-08-06T08:03:27;11.38;;;7.60;;
61903;SDS011;47857;52.270;6.804;2023-08-06T08:05:54;13.82;;;9.68;;
61903;SDS011;47857;52.270;6.804;2023-08-06T08:08:23;11.80;;;8.32;;
61903;SDS011;47857;52.270;6.804;2023-08-06T08:10:48;11.50;;;8.30;;
61903;SDS011;47857;52.270;6.804;2023-08-06T08:13:14;12.07;;;9.45;;
61903;SDS011;47857;52.270;6.804;2023-08-06T08:15:39;13.50;;;9.35;;
61903;SDS011;47857;52.270;6.804;2023-08-06T08:18:05;11.70;;;8.35;;
61903;SDS011;47857;52.270;6.804;2023-08-06T08:20:31;14.43;;;8.63;;
61903;SDS011;47857;52.270;6.804;2023-08-06T08:23:01;11.82;;;9.23;;
61903;SDS011;47857;52.270;6.804;2023-08-06T08:25:27;11.38;;;9.02;;
61903;SDS011;47857;52.270;6.804;2023-08-06T08:27:54;10.88;;;8.23;;
61903;SDS011;47857;52.270;6.804;2023-08-06T08:30:20;10.93;;;8.40;;
61903;SDS011;47857;52.270;6.804;2023-08-06T08:32:46;12.20;;;9.25;;
61903;SDS011;47857;52.270;6.804;2023-08-06T08:35:12;10.95;;;7.97;;
61903;SDS011;47857;52.270;6.804;2023-08-06T08:37:38;11.10;;;8.15;;
61903;SDS011;47857;52.270;6.804;2023-08-06T08:40:05;10.77;;;7.50;;
61903;SDS011;47857;52.270;6.804;2023-08-06T08:42:31;9.13;;;7.45;;
61903;SDS011;47857;52.270;6.804;2023-08-06T08:44:57;9.77;;;7.65;;
61903;SDS011;47857;52.270;6.804;2023-08-06T08:47:23;10.25;;;7.63;;
61903;SDS011;47857;52.270;6.804;2023-08-06T08:49:49;8.85;;;6.97;;
61903;SDS011;47857;52.270;6.804;2023-08-06T08:52:17;7.00;;;5.88;;
61903;SDS011;47857;52.270;6.804;2023-08-06T08:54:43;9.20;;;6.72;;
61903;SDS011;47857;52.270;6.804;2023-08-06T08:57:09;9.00;;;6.20;;
61903;SDS011;47857;52.270;6.804;2023-08-06T08:59:35;7.03;;;6.18;;
61903;SDS011;47857;52.270;6.804;2023-08-06T09:02:01;6.90;;;5.80;;
61903;SDS011;47857;52.270;6.804;2023-08-06T09:04:27;9.98;;;5.82;;
61903;SDS011;47857;52.270;6.804;2023-08-06T09:06:56;8.82;;;5.60;;
61903;SDS011;47857;52.270;6.804;2023-08-06T09:09:27;7.00;;;5.30;;
61903;SDS011;47857;52.270;6.804;2023-08-06T09:11:55;7.40;;;4.60;;
61903;SDS011;47857;52.270;6.804;2023-08-06T09:14:27;6.47;;;5.30;;
61903;SDS011;47857;52.270;6.804;2023-08-06T09:16:53;9.35;;;5.22;;
61903;SDS011;47857;52.270;6.804;2023-08-06T09:19:20;5.10;;;4.60;;
61903;SDS011;47857;52.270;6.804;2023-08-06T09:21:45;6.13;;;4.40;;
61903;SDS011;47857;52.270;6.804;2023-08-06T09:24:14;6.40;;;4.70;;
61903;SDS011;47857;52.270;6.804;2023-08-06T09:26:40;5.15;;;4.65;;
61903;SDS011;47857;52.270;6.804;2023-08-06T09:29:07;6.30;;;4.20;;
61903;SDS011;47857;52.270;6.804;2023-08-06T09:31:43;6.85;;;4.70;;
61903;SDS011;47857;52.270;6.804;2023-08-06T09:34:16;6.72;;;4.97;;
61903;SDS011;47857;52.270;6.804;2023-08-06T09:36:43;4.97;;;4.28;;
61903;SDS011;47857;52.270;6.804;2023-08-06T09:39:18;6.80;;;3.78;;
61903;SDS011;47857;52.270;6.804;2023-08-06T09:41:45;6.00;;;3.90;;
61903;SDS011;47857;52.270;6.804;2023-08-06T09:44:20;6.55;;;3.60;;
61903;SDS011;47857;52.270;6.804;2023-08-06T09:46:51;6.10;;;4.20;;
61903;SDS011;47857;52.270;6.804;2023-08-06T09:49:19;6.10;;;4.00;;
61903;SDS011;47857;52.270;6.804;2023-08-06T09:51:46;5.18;;;3.58;;
61903;SDS011;47857;52.270;6.804;2023-08-06T09:54:16;5.30;;;2.92;;
61903;SDS011;47857;52.270;6.804;2023-08-06T09:56:42;7.50;;;3.35;;
61903;SDS011;47857;52.270;6.804;2023-08-06T09:59:07;7.03;;;3.83;;
61903;SDS011;47857;52.270;6.804;2023-08-06T10:01:34;6.47;;;4.28;;
61903;SDS011;47857;52.270;6.804;2023-08-06T10:04:01;5.15;;;3.50;;
61903;SDS011;47857;52.270;6.804;2023-08-06T10:06:29;3.97;;;3.20;;
61903;SDS011;47857;52.270;6.804;2023-08-06T10:08:55;5.85;;;3.92;;
61903;SDS011;47857;52.270;6.804;2023-08-06T10:11:21;5.80;;;3.70;;
61903;SDS011;47857;52.270;6.804;2023-08-06T10:13:50;5.90;;;3.72;;
61903;SDS011;47857;52.270;6.804;2023-08-06T10:16:20;4.80;;;3.40;;
61903;SDS011;47857;52.270;6.804;2023-08-06T10:18:46;4.97;;;3.38;;
61903;SDS011;47857;52.270;6.804;2023-08-06T10:21:12;4.15;;;3.35;;
61903;SDS011;47857;52.270;6.804;2023-08-06T10:23:40;3.85;;;3.30;;
61903;SDS011;47857;52.270;6.804;2023-08-06T10:26:06;3.88;;;3.00;;
61903;SDS011;47857;52.270;6.804;2023-08-06T10:28:36;5.55;;;3.10;;
61903;SDS011;47857;52.270;6.804;2023-08-06T10:31:02;5.53;;;3.72;;
61903;SDS011;47857;52.270;6.804;2023-08-06T10:33:40;7.80;;;4.28;;
61903;SDS011;47857;52.270;6.804;2023-08-06T10:36:08;6.63;;;4.53;;
61903;SDS011;47857;52.270;6.804;2023-08-06T10:38:34;5.82;;;4.85;;
61903;SDS011;47857;52.270;6.804;2023-08-06T10:41:02;6.70;;;4.70;;
61903;SDS011;47857;52.270;6.804;2023-08-06T10:43:29;4.72;;;4.22;;
61903;SDS011;47857;52.270;6.804;2023-08-06T10:45:57;4.13;;;3.63;;
61903;SDS011;47857;52.270;6.804;2023-08-06T10:48:36;3.97;;;2.70;;
61903;SDS011;47857;52.270;6.804;2023-08-06T10:51:03;4.80;;;2.40;;
61903;SDS011;47857;52.270;6.804;2023-08-06T10:53:32;3.35;;;1.88;;
61903;SDS011;47857;52.270;6.804;2023-08-06T10:55:58;2.25;;;1.85;;
61903;SDS011;47857;52.270;6.804;2023-08-06T10:58:24;4.18;;;2.40;;
61903;SDS011;47857;52.270;6.804;2023-08-06T11:00:49;5.03;;;3.17;;
61903;SDS011;47857;52.270;6.804;2023-08-06T11:03:15;3.95;;;2.70;;
61903;SDS011;47857;52.270;6.804;2023-08-06T11:05:40;3.03;;;2.40;;
61903;SDS011;47857;52.270;6.804;2023-08-06T11:08:05;3.17;;;1.95;;
61903;SDS011;47857;52.270;6.804;2023-08-06T11:10:34;3.95;;;2.97;;
61903;SDS011;47857;52.270;6.804;2023-08-06T11:13:03;4.32;;;3.30;;
61903;SDS011;47857;52.270;6.804;2023-08-06T11:15:29;3.88;;;3.30;;
61903;SDS011;47857;52.270;6.804;2023-08-06T11:17:55;3.05;;;2.50;;
61903;SDS011;47857;52.270;6.804;2023-08-06T11:20:21;2.75;;;1.67;;
61903;SDS011;47857;52.270;6.804;2023-08-06T11:22:47;3.45;;;2.10;;
61903;SDS011;47857;52.270;6.804;2023-08-06T11:25:13;4.28;;;2.40;;
61903;SDS011;47857;52.270;6.804;2023-08-06T11:27:38;3.80;;;2.47;;
61903;SDS011;47857;52.270;6.804;2023-08-06T11:30:04;4.75;;;2.15;;
61903;SDS011;47857;52.270;6.804;2023-08-06T11:32:30;2.90;;;2.38;;
61903;SDS011;47857;52.270;6.804;2023-08-06T11:34:56;4.57;;;2.45;;
61903;SDS011;47857;52.270;6.804;2023-08-06T11:37:21;4.43;;;2.35;;
61903;SDS011;47857;52.270;6.804;2023-08-06T11:39:49;3.58;;;2.60;;
61903;SDS011;47857;52.270;6.804;2023-08-06T11:42:14;5.22;;;3.35;;
61903;SDS011;47857;52.270;6.804;2023-08-06T11:44:40;4.78;;;3.50;;
61903;SDS011;47857;52.270;6.804;2023-08-06T11:47:11;4.68;;;4.10;;
61903;SDS011;47857;52.270;6.804;2023-08-06T11:49:41;7.20;;;4.82;;
61903;SDS011;47857;52.270;6.804;2023-08-06T11:54:46;4.70;;;3.67;;
61903;SDS011;47857;52.270;6.804;2023-08-06T11:57:13;4.32;;;3.92;;
61903;SDS011;47857;52.270;6.804;2023-08-06T11:59:39;6.55;;;5.05;;
61903;SDS011;47857;52.270;6.804;2023-08-06T12:02:06;6.55;;;5.20;;
61903;SDS011;47857;52.270;6.804;2023-08-06T12:07:29;8.98;;;8.18;;
61903;SDS011;47857;52.270;6.804;2023-08-06T12:09:56;10.13;;;9.13;;
61903;SDS011;47857;52.270;6.804;2023-08-06T12:12:22;13.48;;;9.88;;
61903;SDS011;47857;52.270;6.804;2023-08-06T12:14:48;11.32;;;10.07;;
61903;SDS011;47857;52.270;6.804;2023-08-06T12:17:13;11.65;;;10.55;;
61903;SDS011;47857;52.270;6.804;2023-08-06T12:19:39;11.77;;;10.57;;
61903;SDS011;47857;52.270;6.804;2023-08-06T12:22:04;11.75;;;10.55;;
61903;SDS011;47857;52.270;6.804;2023-08-06T12:24:30;12.50;;;10.50;;
61903;SDS011;47857;52.270;6.804;2023-08-06T12:26:59;10.82;;;9.73;;
61903;SDS011;47857;52.270;6.804;2023-08-06T12:29:25;11.45;;;10.40;;
61903;SDS011;47857;52.270;6.804;2023-08-06T12:31:50;10.55;;;9.55;;
61903;SDS011;47857;52.270;6.804;2023-08-06T12:34:16;11.02;;;9.93;;
61903;SDS011;47857;52.270;6.804;2023-08-06T12:36:41;10.50;;;9.50;;
61903;SDS011;47857;52.270;6.804;2023-08-06T12:39:07;10.73;;;9.63;;
61903;SDS011;47857;52.270;6.804;2023-08-06T12:41:33;11.05;;;9.93;;
61903;SDS011;47857;52.270;6.804;2023-08-06T12:43:58;11.93;;;10.82;;
61903;SDS011;47857;52.270;6.804;2023-08-06T12:46:24;11.68;;;10.57;;
61903;SDS011;47857;52.270;6.804;2023-08-06T12:48:49;10.45;;;9.30;;
61903;SDS011;47857;52.270;6.804;2023-08-06T12:51:15;8.98;;;8.10;;
61903;SDS011;47857;52.270;6.804;2023-08-06T12:53:41;7.65;;;6.95;;
61903;SDS011;47857;52.270;6.804;2023-08-06T12:56:06;6.63;;;6.03;;
61903;SDS011;47857;52.270;6.804;2023-08-06T12:58:32;7.32;;;5.95;;
61903;SDS011;47857;52.270;6.804;2023-08-06T13:00:57;8.18;;;5.78;;
61903;SDS011;47857;52.270;6.804;2023-08-06T13:03:23;5.93;;;5.13;;
61903;SDS011;47857;52.270;6.804;2023-08-06T13:05:48;6.65;;;5.57;;
61903;SDS011;47857;52.270;6.804;2023-08-06T13:08:14;5.03;;;4.53;;
61903;SDS011;47857;52.270;6.804;2023-08-06T13:10:39;6.55;;;5.30;;
61903;SDS011;47857;52.270;6.804;2023-08-06T13:13:05;6.30;;;5.45;;
61903;SDS011;47857;52.270;6.804;2023-08-06T13:15:30;7.25;;;5.30;;
61903;SDS011;47857;52.270;6.804;2023-08-06T13:17:56;5.38;;;4.88;;
61903;SDS011;47857;52.270;6.804;2023-08-06T13:20:21;5.03;;;4.50;;
61903;SDS011;47857;52.270;6.804;2023-08-06T13:22:48;5.65;;;4.63;;
61903;SDS011;47857;52.270;6.804;2023-08-06T13:25:15;5.82;;;4.38;;
61903;SDS011;47857;52.270;6.804;2023-08-06T13:27:42;3.97;;;3.35;;
61903;SDS011;47857;52.270;6.804;2023-08-06T13:30:09;4.45;;;3.35;;
61903;SDS011;47857;52.270;6.804;2023-08-06T13:32:35;5.95;;;3.88;;
61903;SDS011;47857;52.270;6.804;2023-08-06T13:35:02;4.38;;;3.97;;
61903;SDS011;47857;52.270;6.804;2023-08-06T13:37:29;7.20;;;4.60;;
61903;SDS011;47857;52.270;6.804;2023-08-06T13:39:54;5.20;;;4.70;;
61903;SDS011;47857;52.270;6.804;2023-08-06T13:42:20;5.50;;;4.70;;
61903;SDS011;47857;52.270;6.804;2023-08-06T13:44:46;5.35;;;4.55;;
61903;SDS011;47857;52.270;6.804;2023-08-06T13:47:11;5.30;;;4.13;;
61903;SDS011;47857;52.270;6.804;2023-08-06T13:49:37;5.88;;;4.03;;
61903;SDS011;47857;52.270;6.804;2023-08-06T13:52:03;4.10;;;3.42;;
61903;SDS011;47857;52.270;6.804;2023-08-06T13:54:29;6.28;;;4.10;;
61903;SDS011;47857;52.270;6.804;2023-08-06T13:56:55;6.10;;;4.50;;
61903;SDS011;47857;52.270;6.804;2023-08-06T13:59:20;6.53;;;4.85;;
61903;SDS011;47857;52.270;6.804;2023-08-06T14:01:46;6.50;;;4.68;;
61903;SDS011;47857;52.270;6.804;2023-08-06T14:04:12;7.22;;;5.00;;
61903;SDS011;47857;52.270;6.804;2023-08-06T14:06:38;8.98;;;4.72;;
61903;SDS011;47857;52.270;6.804;2023-08-06T14:09:04;7.50;;;5.00;;
61903;SDS011;47857;52.270;6.804;2023-08-06T14:11:29;8.02;;;5.47;;
61903;SDS011;47857;52.270;6.804;2023-08-06T14:13:55;7.00;;;5.07;;
61903;SDS011;47857;52.270;6.804;2023-08-06T14:16:20;7.07;;;5.28;;
61903;SDS011;47857;52.270;6.804;2023-08-06T14:18:46;7.53;;;5.28;;
61903;SDS011;47857;52.270;6.804;2023-08-06T14:21:11;7.32;;;5.63;;
61903;SDS011;47857;52.270;6.804;2023-08-06T14:23:37;6.40;;;5.03;;
61903;SDS011;47857;52.270;6.804;2023-08-06T14:26:02;7.50;;;5.70;;
61903;SDS011;47857;52.270;6.804;2023-08-06T14:28:28;8.82;;;6.60;;
61903;SDS011;47857;52.270;6.804;2023-08-06T14:30:54;11.95;;;7.13;;
61903;SDS011;47857;52.270;6.804;2023-08-06T14:33:19;10.90;;;8.30;;
61903;SDS011;47857;52.270;6.804;2023-08-06T14:35:46;20.33;;;9.55;;
61903;SDS011;47857;52.270;6.804;2023-08-06T14:38:11;3.38;;;1.45;;
61903;SDS011;47857;52.270;6.804;2023-08-06T14:40:37;3.53;;;1.50;;
61903;SDS011;47857;52.270;6.804;2023-08-06T14:43:05;6.95;;;1.50;;
61903;SDS011;47857;52.270;6.804;2023-08-06T14:45:30;3.13;;;1.77;;